sensor_id;sensor_type;location;lat;lon;timestamp;temperature;humidity
32626;DHT22;19038;50.922;11.880;2022-11-20T00:03:15;-2.60;68.00
32626;DHT22;19038;50.922;11.880;2022-11-20T00:08:15;-2.60;67.70
32626;DHT22;19038;50.922;11.880;2022-11-20T00:13:15;-2.60;68.10
32626;DHT22;19038;50.922;11.880;2022-11-20T00:18:15;-2.70;68.00
32626;DHT22;19038;50.922;11.880;2022-11-20T00:23:15;-2.70;68.10
32626;DHT22;19038;50.922;11.880;2022-11-20T00:28:15;-2.70;68.10
32626;DHT22;19038;50.922;11.880;2022-11-20T00:33:15;-2.70;68.00
32626;DHT22;19038;50.922;11.880;2022-11-20T00:38:15;-2.70;68.10
32626;DHT22;19038;50.922;11.880;2022-11-20T00:43:15;-2.70;68.00
32626;DHT22;19038;50.922;11.880;2022-11-20T00:48:15;-2.70;68.10
32626;DHT22;19038;50.922;11.880;2022-11-20T00:53:15;-2.70;68.00
32626;DHT22;19038;50.922;11.880;2022-11-20T00:58:15;-2.70;67.80
32626;DHT22;19038;50.922;11.880;2022-11-20T01:03:16;-2.70;67.90
32626;DHT22;19038;50.922;11.880;2022-11-20T01:08:15;-2.70;68.00
32626;DHT22;19038;50.922;11.880;2022-11-20T01:13:15;-2.70;68.40
32626;DHT22;19038;50.922;11.880;2022-11-20T01:18:15;-2.70;67.80
32626;DHT22;19038;50.922;11.880;2022-11-20T01:23:15;-2.70;67.70
32626;DHT22;19038;50.922;11.880;2022-11-20T01:28:15;-2.80;67.70
32626;DHT22;19038;50.922;11.880;2022-11-20T01:33:15;-2.80;67.50
32626;DHT22;19038;50.922;11.880;2022-11-20T01:38:16;-2.80;67.50
32626;DHT22;19038;50.922;11.880;2022-11-20T01:43:18;-3.60;66.80
32626;DHT22;19038;50.922;11.880;2022-11-20T01:48:15;-2.90;67.60
32626;DHT22;19038;50.922;11.880;2022-11-20T01:53:16;-2.90;67.60
32626;DHT22;19038;50.922;11.880;2022-11-20T01:58:16;-2.90;67.50
32626;DHT22;19038;50.922;11.880;2022-11-20T02:03:16;-2.90;67.70
32626;DHT22;19038;50.922;11.880;2022-11-20T02:08:15;-2.90;67.50
32626;DHT22;19038;50.922;11.880;2022-11-20T02:13:15;-2.90;67.50
32626;DHT22;19038;50.922;11.880;2022-11-20T02:18:16;-3.00;67.40
32626;DHT22;19038;50.922;11.880;2022-11-20T02:23:19;-3.00;67.50
32626;DHT22;19038;50.922;11.880;2022-11-20T02:28:16;-3.00;67.50
32626;DHT22;19038;50.922;11.880;2022-11-20T02:33:15;-3.00;67.50
32626;DHT22;19038;50.922;11.880;2022-11-20T02:38:15;-3.00;67.50
32626;DHT22;19038;50.922;11.880;2022-11-20T02:43:15;-3.10;67.00
32626;DHT22;19038;50.922;11.880;2022-11-20T02:48:15;-3.10;66.80
32626;DHT22;19038;50.922;11.880;2022-11-20T02:53:15;-3.20;66.80
32626;DHT22;19038;50.922;11.880;2022-11-20T02:58:15;-3.20;67.20
32626;DHT22;19038;50.922;11.880;2022-11-20T03:03:15;-3.20;67.20
32626;DHT22;19038;50.922;11.880;2022-11-20T03:08:15;-3.30;67.10
32626;DHT22;19038;50.922;11.880;2022-11-20T03:13:15;-3.30;67.20
32626;DHT22;19038;50.922;11.880;2022-11-20T03:18:15;-3.40;66.70
32626;DHT22;19038;50.922;11.880;2022-11-20T03:23:15;-3.40;67.00
32626;DHT22;19038;50.922;11.880;2022-11-20T03:28:16;-3.40;67.30
32626;DHT22;19038;50.922;11.880;2022-11-20T03:33:16;-3.40;67.30
32626;DHT22;19038;50.922;11.880;2022-11-20T03:38:16;-3.40;67.40
32626;DHT22;19038;50.922;11.880;2022-11-20T03:43:15;-3.30;67.60
32626;DHT22;19038;50.922;11.880;2022-11-20T03:48:16;-3.30;67.50
32626;DHT22;19038;50.922;11.880;2022-11-20T03:53:16;-3.30;67.40
32626;DHT22;19038;50.922;11.880;2022-11-20T03:58:16;-3.30;67.40
32626;DHT22;19038;50.922;11.880;2022-11-20T04:03:16;-3.30;67.20
32626;DHT22;19038;50.922;11.880;2022-11-20T04:08:16;-3.40;67.00
32626;DHT22;19038;50.922;11.880;2022-11-20T04:13:16;-3.40;66.90
32626;DHT22;19038;50.922;11.880;2022-11-20T04:18:15;-3.40;67.10
32626;DHT22;19038;50.922;11.880;2022-11-20T04:23:16;-3.40;66.90
32626;DHT22;19038;50.922;11.880;2022-11-20T04:28:16;-3.50;66.60
32626;DHT22;19038;50.922;11.880;2022-11-20T04:33:16;-3.50;66.70
32626;DHT22;19038;50.922;11.880;2022-11-20T04:38:16;-3.60;66.50
32626;DHT22;19038;50.922;11.880;2022-11-20T04:43:16;-3.70;66.30
32626;DHT22;19038;50.922;11.880;2022-11-20T04:48:16;-3.70;66.50
32626;DHT22;19038;50.922;11.880;2022-11-20T04:53:16;-3.70;66.40
32626;DHT22;19038;50.922;11.880;2022-11-20T04:58:16;-3.70;66.40
32626;DHT22;19038;50.922;11.880;2022-11-20T05:03:16;-3.70;66.10
32626;DHT22;19038;50.922;11.880;2022-11-20T05:08:16;-3.80;66.10
32626;DHT22;19038;50.922;11.880;2022-11-20T05:13:18;-3.80;66.40
32626;DHT22;19038;50.922;11.880;2022-11-20T05:18:16;-3.80;66.40
32626;DHT22;19038;50.922;11.880;2022-11-20T05:23:16;-3.80;66.20
32626;DHT22;19038;50.922;11.880;2022-11-20T05:28:18;-3.80;66.30
32626;DHT22;19038;50.922;11.880;2022-11-20T05:33:20;-3.80;66.20
32626;DHT22;19038;50.922;11.880;2022-11-20T05:38:21;-3.80;66.30
32626;DHT22;19038;50.922;11.880;2022-11-20T05:43:16;-3.80;66.60
32626;DHT22;19038;50.922;11.880;2022-11-20T05:48:16;-3.80;66.30
32626;DHT22;19038;50.922;11.880;2022-11-20T05:53:16;-3.90;66.30
32626;DHT22;19038;50.922;11.880;2022-11-20T05:58:16;-3.90;66.20
32626;DHT22;19038;50.922;11.880;2022-11-20T06:03:16;-3.90;66.50
32626;DHT22;19038;50.922;11.880;2022-11-20T06:08:16;-3.80;66.40
32626;DHT22;19038;50.922;11.880;2022-11-20T06:13:16;-3.80;66.30
32626;DHT22;19038;50.922;11.880;2022-11-20T06:18:16;-3.80;66.30
32626;DHT22;19038;50.922;11.880;2022-11-20T06:23:16;-3.90;66.20
32626;DHT22;19038;50.922;11.880;2022-11-20T06:28:16;-3.80;66.40
32626;DHT22;19038;50.922;11.880;2022-11-20T06:33:16;-3.90;66.20
32626;DHT22;19038;50.922;11.880;2022-11-20T06:38:16;-3.90;66.30
32626;DHT22;19038;50.922;11.880;2022-11-20T06:43:16;-3.80;66.40
32626;DHT22;19038;50.922;11.880;2022-11-20T06:48:17;-3.90;66.10
32626;DHT22;19038;50.922;11.880;2022-11-20T06:53:16;-3.90;66.30
32626;DHT22;19038;50.922;11.880;2022-11-20T06:58:16;-3.90;66.40
32626;DHT22;19038;50.922;11.880;2022-11-20T07:03:16;-3.90;66.30
32626;DHT22;19038;50.922;11.880;2022-11-20T07:08:16;-3.90;66.00
32626;DHT22;19038;50.922;11.880;2022-11-20T07:13:16;-3.90;66.40
32626;DHT22;19038;50.922;11.880;2022-11-20T07:18:16;-3.90;66.50
32626;DHT22;19038;50.922;11.880;2022-11-20T07:23:16;-3.90;66.70
32626;DHT22;19038;50.922;11.880;2022-11-20T07:28:16;-3.90;66.90
32626;DHT22;19038;50.922;11.880;2022-11-20T07:33:16;-3.90;67.10
32626;DHT22;19038;50.922;11.880;2022-11-20T07:38:16;-3.80;67.50
32626;DHT22;19038;50.922;11.880;2022-11-20T07:43:16;-3.80;67.60
32626;DHT22;19038;50.922;11.880;2022-11-20T07:48:16;-3.70;67.90
32626;DHT22;19038;50.922;11.880;2022-11-20T07:53:20;-3.70;68.30
32626;DHT22;19038;50.922;11.880;2022-11-20T07:58:16;-3.60;68.50
32626;DHT22;19038;50.922;11.880;2022-11-20T08:03:16;-3.60;68.80
32626;DHT22;19038;50.922;11.880;2022-11-20T08:08:16;-3.50;69.30
32626;DHT22;19038;50.922;11.880;2022-11-20T08:13:16;-3.50;70.10
32626;DHT22;19038;50.922;11.880;2022-11-20T08:18:16;-3.40;71.60
32626;DHT22;19038;50.922;11.880;2022-11-20T08:23:16;-3.30;72.50
32626;DHT22;19038;50.922;11.880;2022-11-20T08:28:16;-3.10;73.00
32626;DHT22;19038;50.922;11.880;2022-11-20T08:33:16;-3.00;72.70
32626;DHT22;19038;50.922;11.880;2022-11-20T08:38:16;-2.90;73.30
32626;DHT22;19038;50.922;11.880;2022-11-20T08:43:16;-2.80;75.70
32626;DHT22;19038;50.922;11.880;2022-11-20T08:48:16;-2.70;75.70
32626;DHT22;19038;50.922;11.880;2022-11-20T08:53:16;-2.50;75.90
32626;DHT22;19038;50.922;11.880;2022-11-20T08:58:16;-2.30;76.80
32626;DHT22;19038;50.922;11.880;2022-11-20T09:03:16;-2.20;78.20
32626;DHT22;19038;50.922;11.880;2022-11-20T09:08:16;-2.10;78.30
32626;DHT22;19038;50.922;11.880;2022-11-20T09:13:16;-2.00;78.80
32626;DHT22;19038;50.922;11.880;2022-11-20T09:18:16;-1.90;79.00
32626;DHT22;19038;50.922;11.880;2022-11-20T09:23:16;-1.80;79.30
32626;DHT22;19038;50.922;11.880;2022-11-20T09:28:16;-1.70;79.60
32626;DHT22;19038;50.922;11.880;2022-11-20T09:33:16;-1.60;79.10
32626;DHT22;19038;50.922;11.880;2022-11-20T09:38:16;-1.40;79.00
32626;DHT22;19038;50.922;11.880;2022-11-20T09:43:18;-1.30;79.00
32626;DHT22;19038;50.922;11.880;2022-11-20T09:48:18;-1.00;79.70
32626;DHT22;19038;50.922;11.880;2022-11-20T10:03:17;-0.70;79.80
32626;DHT22;19038;50.922;11.880;2022-11-20T10:18:21;-0.40;80.50
32626;DHT22;19038;50.922;11.880;2022-11-20T10:23:21;-0.30;80.90
32626;DHT22;19038;50.922;11.880;2022-11-20T10:33:19;-0.20;81.20
32626;DHT22;19038;50.922;11.880;2022-11-20T10:38:21;-0.10;80.60
32626;DHT22;19038;50.922;11.880;2022-11-20T10:43:17;0.00;81.30
32626;DHT22;19038;50.922;11.880;2022-11-20T10:48:22;0.20;81.70
32626;DHT22;19038;50.922;11.880;2022-11-20T10:53:23;0.20;81.70
32626;DHT22;19038;50.922;11.880;2022-11-20T10:58:28;0.30;81.90
32626;DHT22;19038;50.922;11.880;2022-11-20T11:08:28;0.60;82.00
32626;DHT22;19038;50.922;11.880;2022-11-20T11:13:28;0.60;82.00
32626;DHT22;19038;50.922;11.880;2022-11-20T11:18:29;0.80;82.80
32626;DHT22;19038;50.922;11.880;2022-11-20T11:23:29;0.90;83.40
32626;DHT22;19038;50.922;11.880;2022-11-20T11:28:27;0.90;83.10
32626;DHT22;19038;50.922;11.880;2022-11-20T11:33:28;1.00;82.90
32626;DHT22;19038;50.922;11.880;2022-11-20T11:43:28;1.20;82.70
32626;DHT22;19038;50.922;11.880;2022-11-20T11:48:27;1.30;82.90
32626;DHT22;19038;50.922;11.880;2022-11-20T11:53:27;1.30;82.70
32626;DHT22;19038;50.922;11.880;2022-11-20T12:03:29;1.50;83.00
32626;DHT22;19038;50.922;11.880;2022-11-20T12:08:30;1.60;82.70
32626;DHT22;19038;50.922;11.880;2022-11-20T12:18:27;1.70;82.80
32626;DHT22;19038;50.922;11.880;2022-11-20T12:23:31;1.70;82.60
32626;DHT22;19038;50.922;11.880;2022-11-20T12:28:35;1.80;82.20
32626;DHT22;19038;50.922;11.880;2022-11-20T12:33:34;1.80;82.10
32626;DHT22;19038;50.922;11.880;2022-11-20T12:43:27;1.90;81.80
32626;DHT22;19038;50.922;11.880;2022-11-20T12:53:33;1.90;82.20
32626;DHT22;19038;50.922;11.880;2022-11-20T13:08:28;2.00;81.80
32626;DHT22;19038;50.922;11.880;2022-11-20T13:18:27;2.10;82.10
32626;DHT22;19038;50.922;11.880;2022-11-20T13:23:28;2.20;82.20
32626;DHT22;19038;50.922;11.880;2022-11-20T13:28:28;2.20;82.20
32626;DHT22;19038;50.922;11.880;2022-11-20T13:33:32;2.10;82.90
32626;DHT22;19038;50.922;11.880;2022-11-20T13:38:28;2.10;83.00
32626;DHT22;19038;50.922;11.880;2022-11-20T13:43:32;2.20;83.30
32626;DHT22;19038;50.922;11.880;2022-11-20T13:48:32;2.10;83.40
32626;DHT22;19038;50.922;11.880;2022-11-20T14:03:29;2.20;83.30
32626;DHT22;19038;50.922;11.880;2022-11-20T14:08:35;2.20;83.50
32626;DHT22;19038;50.922;11.880;2022-11-20T14:13:27;2.30;83.20
32626;DHT22;19038;50.922;11.880;2022-11-20T14:18:27;2.30;82.90
32626;DHT22;19038;50.922;11.880;2022-11-20T14:23:28;2.30;82.80
32626;DHT22;19038;50.922;11.880;2022-11-20T14:28:29;2.30;82.80
32626;DHT22;19038;50.922;11.880;2022-11-20T14:33:28;2.30;83.00
32626;DHT22;19038;50.922;11.880;2022-11-20T14:38:28;2.30;82.50
32626;DHT22;19038;50.922;11.880;2022-11-20T14:43:28;2.20;82.80
32626;DHT22;19038;50.922;11.880;2022-11-20T14:58:28;2.30;82.60
32626;DHT22;19038;50.922;11.880;2022-11-20T15:08:28;2.30;82.30
32626;DHT22;19038;50.922;11.880;2022-11-20T15:18:28;2.40;82.00
32626;DHT22;19038;50.922;11.880;2022-11-20T15:23:28;2.40;81.90
32626;DHT22;19038;50.922;11.880;2022-11-20T15:33:28;2.40;81.70
32626;DHT22;19038;50.922;11.880;2022-11-20T15:38:28;2.40;81.70
32626;DHT22;19038;50.922;11.880;2022-11-20T15:43:27;2.40;81.80
32626;DHT22;19038;50.922;11.880;2022-11-20T15:53:28;2.20;82.10
32626;DHT22;19038;50.922;11.880;2022-11-20T15:58:28;2.20;82.00
32626;DHT22;19038;50.922;11.880;2022-11-20T16:03:28;2.10;81.40
32626;DHT22;19038;50.922;11.880;2022-11-20T16:08:28;2.10;80.80
32626;DHT22;19038;50.922;11.880;2022-11-20T16:13:31;2.00;80.20
32626;DHT22;19038;50.922;11.880;2022-11-20T16:18:28;2.00;79.80
32626;DHT22;19038;50.922;11.880;2022-11-20T16:23:28;1.90;79.50
32626;DHT22;19038;50.922;11.880;2022-11-20T16:28:28;1.90;79.20
32626;DHT22;19038;50.922;11.880;2022-11-20T16:33:28;1.80;78.80
32626;DHT22;19038;50.922;11.880;2022-11-20T16:38:28;1.70;78.70
32626;DHT22;19038;50.922;11.880;2022-11-20T16:43:28;1.60;78.20
32626;DHT22;19038;50.922;11.880;2022-11-20T16:48:28;1.50;77.90
32626;DHT22;19038;50.922;11.880;2022-11-20T16:53:28;1.50;78.10
32626;DHT22;19038;50.922;11.880;2022-11-20T16:58:28;1.50;77.50
32626;DHT22;19038;50.922;11.880;2022-11-20T17:03:28;1.30;77.30
32626;DHT22;19038;50.922;11.880;2022-11-20T17:08:28;1.30;77.10
32626;DHT22;19038;50.922;11.880;2022-11-20T17:13:29;1.30;77.10
32626;DHT22;19038;50.922;11.880;2022-11-20T17:18:28;1.20;76.60
32626;DHT22;19038;50.922;11.880;2022-11-20T17:23:28;1.10;76.60
32626;DHT22;19038;50.922;11.880;2022-11-20T17:28:28;1.00;76.70
32626;DHT22;19038;50.922;11.880;2022-11-20T17:33:28;0.90;76.80
32626;DHT22;19038;50.922;11.880;2022-11-20T17:38:28;0.90;76.90
32626;DHT22;19038;50.922;11.880;2022-11-20T17:43:28;0.90;76.90
32626;DHT22;19038;50.922;11.880;2022-11-20T17:48:29;0.90;77.10
32626;DHT22;19038;50.922;11.880;2022-11-20T17:53:28;0.90;77.20
32626;DHT22;19038;50.922;11.880;2022-11-20T17:58:28;0.90;77.50
32626;DHT22;19038;50.922;11.880;2022-11-20T18:03:28;0.90;77.80
32626;DHT22;19038;50.922;11.880;2022-11-20T18:08:28;0.90;78.00
32626;DHT22;19038;50.922;11.880;2022-11-20T18:13:28;1.00;78.10
32626;DHT22;19038;50.922;11.880;2022-11-20T18:18:28;1.00;77.90
32626;DHT22;19038;50.922;11.880;2022-11-20T18:23:28;1.10;78.40
32626;DHT22;19038;50.922;11.880;2022-11-20T18:28:28;1.10;78.40
32626;DHT22;19038;50.922;11.880;2022-11-20T18:33:28;1.20;78.50
32626;DHT22;19038;50.922;11.880;2022-11-20T18:38:28;1.20;78.70
32626;DHT22;19038;50.922;11.880;2022-11-20T18:43:28;1.20;78.80
32626;DHT22;19038;50.922;11.880;2022-11-20T18:48:30;1.20;78.80
32626;DHT22;19038;50.922;11.880;2022-11-20T18:53:28;1.20;79.10
32626;DHT22;19038;50.922;11.880;2022-11-20T18:58:28;1.30;79.20
32626;DHT22;19038;50.922;11.880;2022-11-20T19:03:28;1.40;78.80
32626;DHT22;19038;50.922;11.880;2022-11-20T19:08:28;1.40;79.20
32626;DHT22;19038;50.922;11.880;2022-11-20T19:13:28;1.40;78.90
32626;DHT22;19038;50.922;11.880;2022-11-20T19:18:28;1.40;78.90
32626;DHT22;19038;50.922;11.880;2022-11-20T19:23:28;1.40;79.30
32626;DHT22;19038;50.922;11.880;2022-11-20T19:28:29;1.40;79.50
32626;DHT22;19038;50.922;11.880;2022-11-20T19:33:28;1.50;79.30
32626;DHT22;19038;50.922;11.880;2022-11-20T19:38:28;1.50;79.50
32626;DHT22;19038;50.922;11.880;2022-11-20T19:43:28;1.60;79.80
32626;DHT22;19038;50.922;11.880;2022-11-20T19:48:31;1.60;79.60
32626;DHT22;19038;50.922;11.880;2022-11-20T19:53:28;1.60;79.70
32626;DHT22;19038;50.922;11.880;2022-11-20T19:58:28;1.60;80.00
32626;DHT22;19038;50.922;11.880;2022-11-20T20:03:28;1.70;80.40
32626;DHT22;19038;50.922;11.880;2022-11-20T20:08:28;1.70;80.30
32626;DHT22;19038;50.922;11.880;2022-11-20T20:13:28;1.70;80.10
32626;DHT22;19038;50.922;11.880;2022-11-20T20:18:28;1.80;80.30
32626;DHT22;19038;50.922;11.880;2022-11-20T20:23:28;1.80;80.10
32626;DHT22;19038;50.922;11.880;2022-11-20T20:28:28;1.90;81.20
32626;DHT22;19038;50.922;11.880;2022-11-20T20:33:28;1.90;80.60
32626;DHT22;19038;50.922;11.880;2022-11-20T20:38:28;1.90;81.10
32626;DHT22;19038;50.922;11.880;2022-11-20T20:43:28;2.00;81.50
32626;DHT22;19038;50.922;11.880;2022-11-20T20:48:28;2.00;81.20
32626;DHT22;19038;50.922;11.880;2022-11-20T20:53:29;2.00;81.10
32626;DHT22;19038;50.922;11.880;2022-11-20T20:58:28;2.00;81.30
32626;DHT22;19038;50.922;11.880;2022-11-20T21:03:28;2.10;81.20
32626;DHT22;19038;50.922;11.880;2022-11-20T21:08:28;2.10;81.20
32626;DHT22;19038;50.922;11.880;2022-11-20T21:13:28;2.20;81.50
32626;DHT22;19038;50.922;11.880;2022-11-20T21:18:28;2.20;81.20
32626;DHT22;19038;50.922;11.880;2022-11-20T21:23:28;2.30;81.10
32626;DHT22;19038;50.922;11.880;2022-11-20T21:28:29;2.30;81.50
32626;DHT22;19038;50.922;11.880;2022-11-20T21:33:28;2.30;81.80
32626;DHT22;19038;50.922;11.880;2022-11-20T21:38:28;2.30;81.70
32626;DHT22;19038;50.922;11.880;2022-11-20T21:43:28;2.30;82.00
32626;DHT22;19038;50.922;11.880;2022-11-20T21:48:29;2.40;81.60
32626;DHT22;19038;50.922;11.880;2022-11-20T21:53:28;2.40;81.50
32626;DHT22;19038;50.922;11.880;2022-11-20T21:58:28;2.40;81.60
32626;DHT22;19038;50.922;11.880;2022-11-20T22:03:28;2.40;81.90
32626;DHT22;19038;50.922;11.880;2022-11-20T22:08:28;2.40;81.90
32626;DHT22;19038;50.922;11.880;2022-11-20T22:13:28;2.40;82.10
32626;DHT22;19038;50.922;11.880;2022-11-20T22:18:28;2.40;82.30
32626;DHT22;19038;50.922;11.880;2022-11-20T22:23:28;2.40;82.20
32626;DHT22;19038;50.922;11.880;2022-11-20T22:28:28;2.50;82.20
32626;DHT22;19038;50.922;11.880;2022-11-20T22:33:29;2.50;82.20
32626;DHT22;19038;50.922;11.880;2022-11-20T22:38:28;2.50;82.10
32626;DHT22;19038;50.922;11.880;2022-11-20T22:43:28;2.50;81.90
32626;DHT22;19038;50.922;11.880;2022-11-20T22:48:28;2.60;82.60
32626;DHT22;19038;50.922;11.880;2022-11-20T22:53:28;2.60;82.60
32626;DHT22;19038;50.922;11.880;2022-11-20T22:58:28;2.60;83.40
32626;DHT22;19038;50.922;11.880;2022-11-20T23:03:28;2.60;82.90
32626;DHT22;19038;50.922;11.880;2022-11-20T23:08:28;2.60;82.90
32626;DHT22;19038;50.922;11.880;2022-11-20T23:13:28;2.70;83.10
32626;DHT22;19038;50.922;11.880;2022-11-20T23:18:28;2.70;83.40
32626;DHT22;19038;50.922;11.880;2022-11-20T23:23:28;2.70;83.30
32626;DHT22;19038;50.922;11.880;2022-11-20T23:28:28;2.80;83.20
32626;DHT22;19038;50.922;11.880;2022-11-20T23:33:28;2.80;83.20
32626;DHT22;19038;50.922;11.880;2022-11-20T23:38:28;2.80;82.60
32626;DHT22;19038;50.922;11.880;2022-11-20T23:43:28;2.90;82.90
32626;DHT22;19038;50.922;11.880;2022-11-20T23:48:29;2.90;82.90
32626;DHT22;19038;50.922;11.880;2022-11-20T23:53:28;3.00;83.90
32626;DHT22;19038;50.922;11.880;2022-11-20T23:58:30;3.10;85.80
